createdAt,value
2018-10-09T00:02:08.071Z,12.34
2018-10-09T00:04:37.041Z,12.40
2018-10-09T00:07:06.021Z,12.45
2018-10-09T00:09:35.090Z,12.47
2018-10-09T00:12:04.050Z,12.52
2018-10-09T00:14:33.057Z,12.24
2018-10-09T00:17:02.038Z,12.14
2018-10-09T00:19:31.050Z,12.21
2018-10-09T00:22:00.010Z,12.31
2018-10-09T00:24:28.974Z,12.38
2018-10-09T00:26:57.989Z,12.43
2018-10-09T00:29:26.958Z,12.50
2018-10-09T00:31:56.014Z,12.46
2018-10-09T00:34:25.067Z,12.29
2018-10-09T00:36:54.016Z,12.28
2018-10-09T00:39:23.022Z,12.35
2018-10-09T00:41:51.977Z,12.41
2018-10-09T00:44:20.981Z,12.38
2018-10-09T00:46:49.970Z,12.38
2018-10-09T00:49:18.947Z,12.40
2018-10-09T00:51:48.262Z,12.38
2018-10-09T00:54:17.307Z,12.36
2018-10-09T00:56:46.317Z,12.38
2018-10-09T00:59:15.299Z,12.41
2018-10-09T01:01:44.239Z,12.41
2018-10-09T01:04:13.351Z,12.41
2018-10-09T01:06:42.299Z,12.43
2018-10-09T01:09:11.377Z,12.42
2018-10-09T01:11:40.218Z,12.42
2018-10-09T01:14:09.182Z,12.41
2018-10-09T01:16:38.154Z,12.40
2018-10-09T01:19:07.363Z,12.39
2018-10-09T01:21:36.498Z,12.37
2018-10-09T01:24:05.518Z,12.36
2018-10-09T01:26:34.453Z,12.35
2018-10-09T01:29:03.457Z,12.24
2018-10-09T01:31:32.377Z,12.18
2018-10-09T01:34:01.426Z,11.56
2018-10-09T01:36:30.367Z,12.05
2018-10-09T01:38:59.330Z,12.06
2018-10-09T01:41:28.337Z,12.07
2018-10-09T01:43:57.276Z,12.08
2018-10-09T01:46:26.230Z,12.05
2018-10-09T01:48:55.198Z,12.06
2018-10-09T01:51:24.134Z,12.05
2018-10-09T01:53:53.078Z,11.99
2018-10-09T01:56:22.016Z,11.98
2018-10-09T01:58:50.982Z,11.94
2018-10-09T02:01:19.938Z,11.90
2018-10-09T02:03:48.897Z,11.83
2018-10-09T02:06:17.871Z,11.76
2018-10-09T02:08:46.790Z,11.76
2018-10-09T02:11:15.737Z,11.79
2018-10-09T02:13:44.703Z,11.77
2018-10-09T02:16:13.661Z,11.78
2018-10-09T02:18:42.654Z,11.81
2018-10-09T02:21:11.586Z,11.84
2018-10-09T02:23:40.547Z,11.83
2018-10-09T02:26:09.522Z,11.77
2018-10-09T02:28:38.438Z,11.76
2018-10-09T02:31:07.410Z,11.73
2018-10-09T02:33:36.381Z,11.61
2018-10-09T02:36:05.391Z,11.61
2018-10-09T02:38:34.322Z,11.64
2018-10-09T02:41:03.294Z,11.67
2018-10-09T02:43:32.235Z,11.66
2018-10-09T02:46:01.174Z,11.66
2018-10-09T02:48:30.289Z,11.68
2018-10-09T02:50:59.241Z,11.65
2018-10-09T02:53:28.165Z,11.61
2018-10-09T02:55:57.114Z,11.59
2018-10-09T02:58:26.034Z,11.57
2018-10-09T03:00:54.994Z,11.57
2018-10-09T03:03:23.998Z,11.54
2018-10-09T03:05:52.980Z,11.50
2018-10-09T03:08:21.958Z,11.42
2018-10-09T03:10:50.877Z,11.47
2018-10-09T03:13:19.809Z,11.43
2018-10-09T03:15:48.808Z,11.40
2018-10-09T03:18:17.746Z,11.40
2018-10-09T03:20:46.823Z,11.33
2018-10-09T03:23:15.705Z,11.32
2018-10-09T03:25:44.773Z,11.34
2018-10-09T03:28:13.742Z,11.33
2018-10-09T03:30:42.714Z,11.22
2018-10-09T03:33:11.684Z,11.22
2018-10-09T03:35:40.630Z,11.18
2018-10-09T03:38:09.594Z,11.20
2018-10-09T03:40:38.552Z,11.26
2018-10-09T03:43:07.590Z,11.29
2018-10-09T03:45:36.586Z,11.32
2018-10-09T03:48:05.570Z,11.29
2018-10-09T03:50:34.578Z,11.29
2018-10-09T03:53:03.549Z,11.31
2018-10-09T03:55:32.493Z,11.25
2018-10-09T03:58:01.466Z,11.25
2018-10-09T04:00:30.473Z,11.22
2018-10-09T04:02:59.509Z,11.22
2018-10-09T04:05:28.454Z,11.20
2018-10-09T04:07:57.494Z,11.13
2018-10-09T04:10:26.437Z,11.08
2018-10-09T04:12:55.470Z,11.04
2018-10-09T04:15:24.450Z,11.04
2018-10-09T04:17:53.431Z,11.05
2018-10-09T04:20:22.483Z,11.09
2018-10-09T04:22:51.445Z,11.12
2018-10-09T04:25:20.421Z,11.08
2018-10-09T04:27:49.418Z,11.10
2018-10-09T04:30:18.473Z,11.10
2018-10-09T04:32:47.537Z,11.09
2018-10-09T04:35:16.517Z,11.05
2018-10-09T04:37:45.591Z,11.06
2018-10-09T04:40:14.580Z,10.92
2018-10-09T04:42:43.547Z,10.91
2018-10-09T04:45:12.589Z,10.89
2018-10-09T04:47:41.581Z,10.86
2018-10-09T04:50:10.574Z,10.85
2018-10-09T04:52:39.550Z,10.84
2018-10-09T04:55:08.498Z,10.79
2018-10-09T04:57:37.510Z,10.81
2018-10-09T05:00:07.073Z,10.86
2018-10-09T05:02:36.053Z,10.90
2018-10-09T05:05:05.146Z,10.94
2018-10-09T05:07:34.089Z,10.98
2018-10-09T05:10:03.073Z,10.97
2018-10-09T05:12:32.022Z,10.99
2018-10-09T05:15:01.046Z,10.92
2018-10-09T05:17:30.014Z,10.86
2018-10-09T05:19:58.982Z,10.88
2018-10-09T05:22:27.974Z,10.93
2018-10-09T05:24:56.982Z,10.97
2018-10-09T05:27:25.974Z,10.93
2018-10-09T05:29:54.929Z,10.85
2018-10-09T05:32:23.886Z,10.86
2018-10-09T05:34:52.879Z,10.86
2018-10-09T05:37:22.030Z,10.90
2018-10-09T05:39:51.101Z,10.92
2018-10-09T05:42:20.058Z,10.89
2018-10-09T05:44:49.034Z,10.90
2018-10-09T05:47:18.008Z,10.87
2018-10-09T05:49:47.577Z,10.84
2018-10-09T05:52:16.630Z,10.77
2018-10-09T05:54:45.650Z,10.73
2018-10-09T05:57:14.606Z,10.69
2018-10-09T05:59:43.613Z,10.70
2018-10-09T06:02:12.598Z,10.74
2018-10-09T06:04:41.577Z,10.75
2018-10-09T06:07:10.613Z,10.77
2018-10-09T06:09:39.614Z,10.85
2018-10-09T06:12:08.807Z,10.88
2018-10-09T06:14:37.766Z,10.89
2018-10-09T06:17:06.778Z,10.97
2018-10-09T06:19:35.745Z,11.04
2018-10-09T06:22:04.736Z,11.09
2018-10-09T06:25:37.363Z,11.21
2018-10-09T06:28:06.841Z,11.20
2018-10-09T06:30:36.161Z,11.26
2018-10-09T06:33:05.201Z,11.30
2018-10-09T06:35:34.169Z,11.23
2018-10-09T06:38:03.254Z,11.24
2018-10-09T06:40:32.261Z,11.23
2018-10-09T06:43:01.213Z,11.18
2018-10-09T06:45:30.187Z,11.21
2018-10-09T06:47:59.143Z,11.26
2018-10-09T06:50:28.139Z,11.30
2018-10-09T06:52:57.077Z,11.35
2018-10-09T06:55:26.047Z,11.43
2018-10-09T06:57:55.014Z,11.56
2018-10-09T07:00:24.096Z,11.68
2018-10-09T07:02:53.091Z,11.58
2018-10-09T07:05:22.063Z,11.89
2018-10-09T07:07:51.819Z,11.92
2018-10-09T07:10:20.862Z,11.91
2018-10-09T07:12:49.838Z,11.82
2018-10-09T07:15:18.883Z,11.82
2018-10-09T07:17:47.813Z,11.91
2018-10-09T07:20:16.833Z,11.96
2018-10-09T07:22:45.807Z,12.03
2018-10-09T07:25:14.994Z,12.14
2018-10-09T07:27:43.990Z,12.24
2018-10-09T07:30:13.007Z,12.24
2018-10-09T07:32:42.059Z,12.26
2018-10-09T07:35:11.629Z,12.30
2018-10-09T07:37:40.676Z,12.46
2018-10-09T07:40:09.646Z,12.59
2018-10-09T07:42:38.670Z,12.73
2018-10-09T07:45:08.368Z,12.80
2018-10-09T07:47:37.421Z,12.85
2018-10-09T07:50:06.435Z,12.89
2018-10-09T07:52:35.412Z,13.00
2018-10-09T07:55:04.370Z,13.11
2018-10-09T07:57:33.403Z,13.21
2018-10-09T08:00:02.502Z,13.29
2018-10-09T08:02:31.478Z,13.35
2018-10-09T08:05:00.471Z,13.40
2018-10-09T08:07:29.446Z,13.47
2018-10-09T08:09:58.414Z,13.59
2018-10-09T08:12:27.387Z,13.66
2018-10-09T08:14:56.333Z,13.71
2018-10-09T08:17:25.333Z,13.78
2018-10-09T08:19:54.305Z,13.87
2018-10-09T08:22:23.336Z,13.96
2018-10-09T08:24:52.250Z,14.09
2018-10-09T08:27:21.221Z,14.18
2018-10-09T08:29:50.271Z,14.24
2018-10-09T08:32:19.302Z,14.40
2018-10-09T08:34:48.239Z,14.51
2018-10-09T08:37:17.240Z,14.63
2018-10-09T08:39:46.200Z,14.75
2018-10-09T08:42:15.199Z,14.79
2018-10-09T08:44:44.163Z,14.90
2018-10-09T08:47:13.168Z,15.03
2018-10-09T08:49:42.122Z,15.17
2018-10-09T08:52:11.114Z,15.29
2018-10-09T08:54:40.340Z,15.38
2018-10-09T08:57:09.319Z,15.44
2018-10-09T08:59:38.299Z,15.67
2018-10-09T09:02:07.307Z,15.85
2018-10-09T09:04:36.292Z,16.02
2018-10-09T09:07:05.302Z,16.12
2018-10-09T09:09:34.312Z,16.21
2018-10-09T09:12:03.319Z,16.33
2018-10-09T09:14:32.320Z,16.40
2018-10-09T09:17:01.339Z,16.47
2018-10-09T09:19:30.321Z,16.54
2018-10-09T09:21:59.302Z,16.65
2018-10-09T09:24:28.293Z,16.71
2018-10-09T09:26:57.341Z,16.78
2018-10-09T09:29:26.259Z,16.84
2018-10-09T09:31:55.349Z,16.91
2018-10-09T09:34:24.308Z,16.93
2018-10-09T09:36:53.286Z,17.04
2018-10-09T09:39:22.345Z,17.02
2018-10-09T09:41:51.678Z,17.08
2018-10-09T09:44:20.637Z,17.21
2018-10-09T09:46:49.610Z,17.26
2018-10-09T09:49:18.581Z,17.29
2018-10-09T09:51:47.567Z,17.36
2018-10-09T09:54:16.524Z,17.49
2018-10-09T09:56:45.507Z,17.54
2018-10-09T09:59:14.552Z,17.65
2018-10-09T10:01:44.435Z,17.76
2018-10-09T10:04:14.191Z,17.83
2018-10-09T10:06:43.621Z,17.90
2018-10-09T10:09:12.658Z,17.99
2018-10-09T10:11:41.636Z,18.07
2018-10-09T10:14:10.763Z,18.11
2018-10-09T10:16:39.714Z,18.23
2018-10-09T10:19:08.678Z,18.29
2018-10-09T10:21:37.606Z,18.32
2018-10-09T10:24:06.657Z,18.38
2018-10-09T10:26:35.595Z,18.52
2018-10-09T10:29:04.740Z,18.60
2018-10-09T10:31:34.151Z,18.79
2018-10-09T10:34:04.147Z,18.88
2018-10-09T10:36:34.151Z,19.13
2018-10-09T10:39:03.515Z,19.25
2018-10-09T10:41:32.443Z,19.31
2018-10-09T10:44:01.398Z,19.45
2018-10-09T10:46:35.743Z,19.57
2018-10-09T10:49:06.434Z,19.60
2018-10-09T10:51:35.515Z,19.66
2018-10-09T10:54:04.497Z,19.76
2018-10-09T10:56:33.915Z,19.80
2018-10-09T10:59:02.909Z,19.86
2018-10-09T11:01:31.930Z,19.95
2018-10-09T11:04:00.842Z,20.00
2018-10-09T11:06:29.777Z,20.02
2018-10-09T11:08:58.723Z,20.00
2018-10-09T11:11:27.647Z,20.01
2018-10-09T11:13:56.662Z,20.05
2018-10-09T11:16:25.651Z,20.06
2018-10-09T11:18:54.601Z,20.08
2018-10-09T11:21:23.721Z,20.08
2018-10-09T11:23:53.723Z,20.14
2018-10-09T11:26:23.691Z,20.22
2018-10-09T11:28:53.634Z,20.15
2018-10-09T11:31:23.614Z,20.32
2018-10-09T11:33:52.554Z,20.47
2018-10-09T11:36:21.506Z,20.50
2018-10-09T11:38:50.465Z,20.58
2018-10-09T11:41:19.395Z,20.53
2018-10-09T11:43:48.337Z,20.57
2018-10-09T11:46:17.312Z,20.61
2018-10-09T11:48:46.291Z,20.66
2018-10-09T11:51:15.252Z,20.63
2018-10-09T11:53:44.187Z,20.72
2018-10-09T11:56:13.123Z,20.76
2018-10-09T11:58:42.143Z,20.75
2018-10-09T12:01:11.134Z,20.77
2018-10-09T12:03:40.110Z,20.74
2018-10-09T12:06:09.024Z,20.78
2018-10-09T12:08:37.982Z,20.84
2018-10-09T12:11:06.998Z,20.85
2018-10-09T12:13:35.978Z,20.83
2018-10-09T12:16:04.907Z,20.91
2018-10-09T12:18:34.211Z,20.99
2018-10-09T12:21:03.139Z,21.05
2018-10-09T12:23:32.083Z,21.12
2018-10-09T12:26:01.007Z,21.20
2018-10-09T12:28:29.965Z,21.19
2018-10-09T12:30:58.887Z,21.26
2018-10-09T12:33:27.879Z,21.32
2018-10-09T12:35:56.801Z,21.31
2018-10-09T12:38:25.806Z,21.39
2018-10-09T12:40:54.699Z,21.36
2018-10-09T12:43:23.647Z,21.42
2018-10-09T12:45:52.583Z,21.45
2018-10-09T12:48:21.528Z,21.50
2018-10-09T12:50:50.479Z,21.54
2018-10-09T12:53:19.442Z,21.64
2018-10-09T12:55:48.391Z,21.67
2018-10-09T12:58:17.321Z,21.64
2018-10-09T13:00:46.283Z,21.62
2018-10-09T13:03:15.339Z,21.69
2018-10-09T13:05:44.186Z,21.76
2018-10-09T13:08:13.119Z,21.72
2018-10-09T13:10:42.061Z,21.79
2018-10-09T13:13:11.045Z,21.84
2018-10-09T13:15:40.302Z,21.88
2018-10-09T13:18:09.252Z,21.88
2018-10-09T13:20:38.235Z,21.89
2018-10-09T13:23:07.194Z,21.95
2018-10-09T13:25:36.259Z,21.97
2018-10-09T13:28:05.867Z,22.03
2018-10-09T13:30:34.842Z,22.11
2018-10-09T13:33:03.843Z,22.20
2018-10-09T13:35:32.966Z,22.15
2018-10-09T13:38:01.960Z,22.13
2018-10-09T13:40:30.951Z,22.18
2018-10-09T13:42:59.910Z,22.23
2018-10-09T13:45:28.875Z,22.21
2018-10-09T13:47:57.847Z,22.26
2018-10-09T13:50:26.859Z,22.29
2018-10-09T13:52:55.771Z,22.31
2018-10-09T13:55:24.782Z,22.32
2018-10-09T13:57:53.731Z,22.32
2018-10-09T14:00:22.731Z,22.25
2018-10-09T14:02:51.723Z,22.27
2018-10-09T14:05:20.662Z,22.29
2018-10-09T14:07:49.623Z,22.34
2018-10-09T14:10:18.679Z,22.35
2018-10-09T14:12:47.591Z,22.29
2018-10-09T14:15:16.559Z,22.35
2018-10-09T14:17:45.507Z,22.42
2018-10-09T14:20:14.464Z,22.45
2018-10-09T14:22:43.444Z,22.46
2018-10-09T14:25:12.364Z,22.43
2018-10-09T14:27:41.303Z,22.42
2018-10-09T14:30:10.259Z,22.41
2018-10-09T14:32:39.186Z,22.42
2018-10-09T14:35:08.151Z,22.41
2018-10-09T14:37:37.100Z,22.43
2018-10-09T14:40:06.091Z,22.42
2018-10-09T14:42:35.034Z,22.49
2018-10-09T14:45:04.023Z,22.45
2018-10-09T14:47:32.945Z,22.44
2018-10-09T14:50:01.910Z,22.40
2018-10-09T14:52:30.846Z,22.44
2018-10-09T14:54:59.806Z,22.37
2018-10-09T14:57:28.746Z,22.39
2018-10-09T14:59:57.699Z,22.33
2018-10-09T15:02:26.623Z,22.32
2018-10-09T15:04:55.558Z,22.29
2018-10-09T15:07:24.506Z,22.26
2018-10-09T15:09:53.465Z,22.27
2018-10-09T15:12:22.418Z,22.23
2018-10-09T15:14:51.347Z,22.23
2018-10-09T15:17:20.343Z,22.24
2018-10-09T15:19:49.264Z,22.19
2018-10-09T15:22:18.214Z,22.19
2018-10-09T15:24:47.157Z,22.13
2018-10-09T15:27:16.120Z,22.12
2018-10-09T15:29:45.059Z,22.10
2018-10-09T15:32:14.002Z,22.10
2018-10-09T15:34:42.942Z,22.07
2018-10-09T15:37:11.906Z,22.05
2018-10-09T15:39:40.833Z,22.02
2018-10-09T15:42:09.772Z,22.02
2018-10-09T15:44:38.719Z,22.02
2018-10-09T15:47:07.712Z,22.00
2018-10-09T15:49:36.643Z,22.02
2018-10-09T15:52:05.591Z,22.00
2018-10-09T15:54:34.503Z,22.00
2018-10-09T15:57:03.446Z,22.13
2018-10-09T15:59:33.036Z,22.21
2018-10-09T16:02:02.034Z,22.24
2018-10-09T16:04:31.174Z,22.26
2018-10-09T16:07:00.198Z,22.29
2018-10-09T16:09:29.775Z,22.26
2018-10-09T16:11:58.742Z,22.26
2018-10-09T16:14:27.675Z,22.22
2018-10-09T16:16:56.675Z,22.17
2018-10-09T16:19:25.722Z,22.13
2018-10-09T16:21:54.698Z,22.06
2018-10-09T16:24:23.701Z,21.99
2018-10-09T16:26:52.651Z,21.96
2018-10-09T16:29:21.606Z,21.89
2018-10-09T16:31:50.653Z,21.83
2018-10-09T16:34:19.587Z,21.77
2018-10-09T16:36:48.527Z,21.69
2018-10-09T16:39:17.466Z,21.64
2018-10-09T16:41:46.433Z,21.59
2018-10-09T16:44:15.406Z,21.53
2018-10-09T16:46:45.474Z,21.48
2018-10-09T16:49:14.458Z,21.39
2018-10-09T16:51:43.450Z,21.34
2018-10-09T16:54:12.407Z,21.27
2018-10-09T16:56:41.398Z,21.20
2018-10-09T16:59:10.330Z,21.11
2018-10-09T17:01:39.467Z,21.03
2018-10-09T17:04:08.414Z,20.93
2018-10-09T17:06:37.783Z,20.90
2018-10-09T17:09:09.103Z,20.80
2018-10-09T17:11:38.514Z,20.73
2018-10-09T17:14:07.481Z,20.66
2018-10-09T17:16:36.441Z,20.62
2018-10-09T17:19:05.394Z,20.52
2018-10-09T17:21:34.344Z,20.48
2018-10-09T17:24:03.292Z,20.45
2018-10-09T17:26:32.260Z,20.44
2018-10-09T17:29:01.193Z,20.31
2018-10-09T17:31:30.343Z,20.15
2018-10-09T17:33:59.330Z,20.07
2018-10-09T17:36:28.303Z,20.01
2018-10-09T17:38:57.234Z,19.91
2018-10-09T17:41:26.278Z,19.78
2018-10-09T17:43:55.230Z,19.75
2018-10-09T17:46:24.285Z,19.65
2018-10-09T17:48:53.185Z,19.55
2018-10-09T17:51:22.148Z,19.48
2018-10-09T17:53:51.170Z,19.47
2018-10-09T17:56:20.107Z,19.41
2018-10-09T17:58:49.134Z,19.39
2018-10-09T18:01:18.106Z,19.36
2018-10-09T18:03:47.122Z,19.32
2018-10-09T18:06:16.085Z,19.28
2018-10-09T18:08:45.092Z,19.26
2018-10-09T18:11:14.030Z,19.25
2018-10-09T18:13:42.998Z,19.17
2018-10-09T18:16:11.950Z,19.16
2018-10-09T18:18:41.099Z,19.11
2018-10-09T18:21:10.075Z,19.07
2018-10-09T18:23:39.063Z,19.03
2018-10-09T18:26:08.063Z,18.99
2018-10-09T18:28:37.063Z,18.96
2018-10-09T18:31:06.037Z,18.92
2018-10-09T18:33:35.019Z,18.89
2018-10-09T18:36:04.024Z,18.82
2018-10-09T18:38:33.027Z,18.78
2018-10-09T18:41:02.033Z,18.68
2018-10-09T18:43:31.465Z,18.58
2018-10-09T18:46:00.386Z,18.52
2018-10-09T18:48:29.387Z,18.45
2018-10-09T18:50:58.443Z,18.42
2018-10-09T18:53:27.440Z,18.41
2018-10-09T18:55:56.398Z,18.42
2018-10-09T18:58:25.367Z,18.36
2018-10-09T19:00:54.414Z,18.32
2018-10-09T19:03:23.414Z,18.26
2018-10-09T19:05:52.383Z,18.24
2018-10-09T19:08:21.371Z,18.18
2018-10-09T19:10:50.407Z,18.07
2018-10-09T19:13:19.647Z,18.04
2018-10-09T19:15:48.627Z,17.98
2018-10-09T19:18:17.608Z,17.95
2018-10-09T19:20:46.526Z,17.91
2018-10-09T19:23:15.487Z,17.79
2018-10-09T19:25:44.421Z,17.71
2018-10-09T19:28:13.399Z,17.65
2018-10-09T19:30:42.350Z,17.59
2018-10-09T19:33:11.323Z,17.61
2018-10-09T19:35:40.267Z,17.54
2018-10-09T19:38:09.217Z,17.45
2018-10-09T19:40:38.181Z,17.35
2018-10-09T19:43:07.143Z,17.34
2018-10-09T19:45:36.118Z,17.32
2018-10-09T19:48:05.128Z,17.28
2018-10-09T19:50:34.609Z,17.30
2018-10-09T19:53:03.502Z,17.33
2018-10-09T19:55:32.468Z,17.34
2018-10-09T19:58:01.450Z,17.35
2018-10-09T20:00:30.427Z,17.34
2018-10-09T20:02:59.376Z,17.32
2018-10-09T20:05:28.335Z,17.31
2018-10-09T20:07:57.292Z,17.24
2018-10-09T20:10:26.259Z,17.22
2018-10-09T20:12:55.237Z,17.16
2018-10-09T20:15:24.260Z,17.13
2018-10-09T20:17:53.231Z,17.13
2018-10-09T20:20:22.279Z,17.11
2018-10-09T20:22:51.231Z,17.09
2018-10-09T20:25:20.270Z,17.03
2018-10-09T20:27:49.219Z,17.01
2018-10-09T20:30:18.208Z,16.96
2018-10-09T20:32:47.169Z,16.91
2018-10-09T20:35:17.042Z,16.88
2018-10-09T20:37:46.055Z,16.83
2018-10-09T20:40:15.023Z,16.82
2018-10-09T20:42:43.979Z,16.76
2018-10-09T20:45:12.986Z,16.76
2018-10-09T20:47:43.011Z,16.72
2018-10-09T20:50:12.430Z,16.71
2018-10-09T20:52:41.370Z,16.68
2018-10-09T20:55:10.368Z,16.67
2018-10-09T20:57:39.413Z,16.63
2018-10-09T21:00:08.428Z,16.61
2018-10-09T21:02:37.383Z,16.55
2018-10-09T21:05:06.341Z,16.55
2018-10-09T21:07:35.308Z,16.51
2018-10-09T21:10:04.327Z,16.50
2018-10-09T21:12:33.301Z,16.45
2018-10-09T21:15:02.310Z,16.38
2018-10-09T21:17:31.347Z,16.31
2018-10-09T21:20:00.236Z,16.23
2018-10-09T21:22:29.503Z,16.19
2018-10-09T21:24:58.493Z,16.20
2018-10-09T21:27:27.427Z,16.23
2018-10-09T21:29:56.534Z,16.24
2018-10-09T21:32:25.424Z,16.21
2018-10-09T21:34:54.419Z,16.20
2018-10-09T21:37:23.402Z,16.18
2018-10-09T21:39:52.362Z,16.14
2018-10-09T21:42:21.286Z,16.10
2018-10-09T21:44:50.231Z,16.07
2018-10-09T21:47:19.158Z,15.93
2018-10-09T21:49:48.098Z,15.88
2018-10-09T21:52:17.127Z,15.80
2018-10-09T21:54:46.102Z,15.69
2018-10-09T21:57:15.046Z,15.67
2018-10-09T21:59:43.986Z,15.63
2018-10-09T22:02:12.910Z,15.60
2018-10-09T22:04:41.850Z,15.56
2018-10-09T22:07:14.965Z,15.48
2018-10-09T22:09:43.929Z,15.42
2018-10-09T22:12:13.018Z,15.40
2018-10-09T22:14:41.983Z,15.39
2018-10-09T22:17:10.958Z,15.28
2018-10-09T22:19:39.970Z,15.37
2018-10-09T22:22:08.898Z,15.36
2018-10-09T22:24:37.818Z,15.35
2018-10-09T22:27:06.806Z,15.35
2018-10-09T22:29:35.747Z,15.36
2018-10-09T22:32:04.692Z,15.31
2018-10-09T22:34:33.615Z,15.31
2018-10-09T22:37:02.567Z,15.28
2018-10-09T22:39:31.489Z,15.28
2018-10-09T22:42:00.450Z,15.27
2018-10-09T22:44:29.505Z,15.20
2018-10-09T22:46:58.458Z,15.18
2018-10-09T22:49:27.383Z,15.21
2018-10-09T22:51:56.328Z,15.23
2018-10-09T22:54:25.246Z,15.20
2018-10-09T22:56:54.263Z,15.21
2018-10-09T22:59:23.194Z,15.17
2018-10-09T23:01:52.166Z,15.16
2018-10-09T23:04:21.338Z,15.14
2018-10-09T23:06:50.319Z,15.12
2018-10-09T23:09:19.247Z,15.13
2018-10-09T23:11:48.190Z,15.09
2018-10-09T23:14:17.397Z,15.08
2018-10-09T23:16:46.382Z,15.05
2018-10-09T23:19:15.335Z,15.04
2018-10-09T23:21:44.302Z,15.04
2018-10-09T23:24:13.248Z,15.01
2018-10-09T23:26:42.222Z,15.01
2018-10-09T23:29:11.221Z,14.97
2018-10-09T23:31:40.178Z,14.96
2018-10-09T23:34:09.214Z,14.90
2018-10-09T23:36:38.183Z,14.89
2018-10-09T23:39:08.130Z,14.86
2018-10-09T23:41:37.102Z,14.81
2018-10-09T23:44:06.047Z,14.78
2018-10-09T23:46:35.015Z,14.76
2018-10-09T23:49:03.980Z,14.73
2018-10-09T23:51:32.946Z,14.59
2018-10-09T23:54:01.883Z,14.51
2018-10-09T23:56:30.846Z,14.46
2018-10-09T23:58:59.847Z,14.44
